Goshen Heliport

58WT · 华盛顿州, 美国

罗盘
风向 的 风向 160° 直升机
风: 4 kt, 2 beaufort
0 ft 2.000 4.000 6.000 8.000 10.000
Cloud Cloud Cloud Cloud Cloud Cloud
BKN 4.600
Cloud Cloud Cloud Cloud Cloud Cloud Cloud Cloud
OVC 6.000
METAR KBLI 220753Z AUTO 16004KT 10SM -RA BKN046 OVC060 08/07 A2982 RMK AO2 RAE04B22 SLP105 P0000 T00780067 401170072

METAR Goshen Heliport - 58WT

Goshen Heliport是,美国中的直升机场。 该机场位于纬度48,85222和经度-122,33028。 这个机场没有ICAO代码,我们使用US-D115作为参考。 该机场的本地机场标识(FAA LID)为58WT。 机场在Seattle FIR中。

该航空气象观测是针对Bellingham International Airport在2024年5月22日 00:53, 当地时间进行的。

机场观察

风向为160°,速度为4 kt。

可见度为10 mi。

有碎云在4.600 ft的高度 和 乌云密布在6.000 ft的高度。 破损或更高的上限为4.600 ft。

当前天气为光 雨。 温度为8 °C,阵风为5 °C。 露点为7 °C,相对湿度为93%。 海平面上的气压为29,82 inHg (QNH)。

白天

今天,太阳从05:18升起,在20:54降落。 这适用于Goshen Heliport,世界夏令时可能有所不同。 当地时间与世界标准时间之间的时差为-7 小时。 夏令时目前正在进行中。

公司介绍

我们没有关于这个机场的公司信息。

体会

到Vliegles.nl去找飞行课程,跳伞和其他飞行体验。 浏览页面,了解Goshen Heliport附近所有可用的活动。 你也可以使用搜索功能来寻找你所在地附近的特定飞行课程、跳伞或其他飞行体验。

乌云

4.600 ft BKN 碎云
6.000 ft OVC 乌云密布

温度 & 天气

天气 光 雨
温度 7,8 °C
露点 6,7 °C
相对湿度 93%
风寒 5 °C
Kp-index 0 (0-9)

评论

AO2自动气象站,可确定降水类型
RAE04B22雨 结束于 04, 开始于 22
SLP105海平面压力为29,84 inHg (29,84 inHg)
P0000自从上次观察以来没有降雨
T00780067温度为7,8 °C (46,0 °F),露点为6,7 °C (44,1 °F)
401170072

白天

日出
05:19 (3:51)
中午
13:06
日落
20:54

小工具

你想在你的网站上有一个关于Goshen Heliport的当前航空天气(METAR)的小部件吗?

显示HTML代码
报告变更